createdAt,value
2023-12-08T00:01:31.373Z,69.48
2023-12-08T00:03:58.826Z,67.59
2023-12-08T00:06:26.364Z,67.55
2023-12-08T00:08:53.911Z,68.43
2023-12-08T00:11:21.274Z,68.43
2023-12-08T00:13:48.746Z,67.87
2023-12-08T00:16:16.051Z,67.44
2023-12-08T00:18:43.535Z,68.25
2023-12-08T00:21:10.995Z,68.36
2023-12-08T00:23:38.370Z,67.45
2023-12-08T00:26:06.132Z,65.94
2023-12-08T00:28:33.527Z,68.04
2023-12-08T00:31:00.861Z,68.11
2023-12-08T00:33:28.322Z,67.67
2023-12-08T00:35:55.848Z,66.50
2023-12-08T00:38:23.404Z,66.48
2023-12-08T00:40:51.492Z,69.06
2023-12-08T00:43:18.825Z,70.03
2023-12-08T00:45:46.194Z,70.74
2023-12-08T00:48:13.709Z,67.90
2023-12-08T00:50:41.079Z,65.97
2023-12-08T00:53:08.553Z,65.85
2023-12-08T00:55:35.898Z,67.88
2023-12-08T00:58:03.325Z,67.17
2023-12-08T01:00:30.851Z,69.50
2023-12-08T01:02:58.377Z,68.39
2023-12-08T01:05:25.794Z,70.07
2023-12-08T01:07:53.092Z,69.44
2023-12-08T01:10:22.117Z,68.13
2023-12-08T01:12:49.774Z,68.39
2023-12-08T01:15:17.260Z,70.12
2023-12-08T01:17:44.662Z,69.97
2023-12-08T01:20:12.545Z,68.85
2023-12-08T01:22:39.861Z,67.44
2023-12-08T01:25:08.015Z,67.18
2023-12-08T01:27:35.469Z,68.35
2023-12-08T01:30:03.086Z,73.81
2023-12-08T01:32:30.603Z,73.62
2023-12-08T01:34:58.323Z,73.78
2023-12-08T01:37:25.886Z,73.95
2023-12-08T01:39:53.332Z,74.52
2023-12-08T01:42:20.709Z,74.46
2023-12-08T01:44:48.102Z,72.42
2023-12-08T01:47:15.951Z,73.46
2023-12-08T01:49:44.286Z,71.46
2023-12-08T01:52:15.563Z,72.51
2023-12-08T01:54:43.095Z,72.52
2023-12-08T01:57:10.752Z,70.17
2023-12-08T01:59:38.283Z,73.74
2023-12-08T02:02:05.902Z,74.43
2023-12-08T02:04:33.345Z,73.67
2023-12-08T02:07:01.434Z,71.91
2023-12-08T02:09:28.854Z,74.35
2023-12-08T02:11:56.363Z,72.47
2023-12-08T02:14:23.704Z,71.19
2023-12-08T02:17:03.044Z,72.81
2023-12-08T02:19:32.127Z,69.07
2023-12-08T02:21:59.655Z,67.60
2023-12-08T02:24:27.155Z,72.57
2023-12-08T02:26:54.750Z,72.33
2023-12-08T02:29:22.252Z,70.34
2023-12-08T02:32:28.948Z,69.09
2023-12-08T02:35:02.828Z,68.04
2023-12-08T02:37:37.033Z,68.51
2023-12-08T02:40:09.708Z,69.17
2023-12-08T02:42:37.161Z,68.38
2023-12-08T02:45:05.469Z,72.79
2023-12-08T02:47:33.008Z,71.94
2023-12-08T02:50:00.612Z,70.02
2023-12-08T02:52:27.951Z,71.12
2023-12-08T02:54:55.260Z,70.93
2023-12-08T02:57:22.677Z,73.05
2023-12-08T02:59:50.022Z,71.46
2023-12-08T03:02:17.432Z,73.63
2023-12-08T03:04:44.763Z,69.00
2023-12-08T03:07:13.529Z,68.54
2023-12-08T03:09:40.967Z,72.16
2023-12-08T03:12:08.512Z,73.55
2023-12-08T03:14:35.918Z,70.71
2023-12-08T03:17:03.624Z,71.32
2023-12-08T03:19:30.975Z,72.20
2023-12-08T03:21:59.008Z,70.61
2023-12-08T03:24:26.347Z,71.43
2023-12-08T03:26:53.740Z,72.30
2023-12-08T03:29:21.150Z,69.81
2023-12-08T03:31:48.533Z,70.60
2023-12-08T03:34:16.071Z,71.41
2023-12-08T03:36:43.424Z,70.17
2023-12-08T03:39:10.825Z,72.67
2023-12-08T03:41:38.259Z,71.62
2023-12-08T03:44:05.826Z,68.55
2023-12-08T03:46:33.192Z,70.14
2023-12-08T03:49:00.572Z,70.79
2023-12-08T03:51:28.076Z,70.84
2023-12-08T03:53:55.436Z,70.67
2023-12-08T03:56:22.776Z,70.26
2023-12-08T03:58:50.188Z,71.23
2023-12-08T04:01:19.427Z,70.32
2023-12-08T04:03:48.308Z,70.43
2023-12-08T04:06:15.872Z,69.17
2023-12-08T04:08:43.437Z,70.71
2023-12-08T04:11:11.164Z,70.81
2023-12-08T04:13:41.440Z,71.11
2023-12-08T04:16:09.943Z,70.20
2023-12-08T04:18:38.318Z,69.58
2023-12-08T04:21:06.102Z,70.68
2023-12-08T04:23:33.663Z,69.67
2023-12-08T04:26:01.070Z,70.64
2023-12-08T04:28:29.000Z,71.09
2023-12-08T04:30:56.503Z,68.56
2023-12-08T04:33:24.036Z,68.63
2023-12-08T04:35:52.011Z,69.50
2023-12-08T04:38:19.426Z,72.67
2023-12-08T04:40:50.030Z,71.65
2023-12-08T04:43:17.529Z,70.99
2023-12-08T04:45:54.381Z,72.24
2023-12-08T04:48:22.015Z,72.94
2023-12-08T04:50:52.942Z,72.38
2023-12-08T04:53:20.523Z,72.13
2023-12-08T04:55:50.611Z,73.65
2023-12-08T04:58:18.104Z,70.07
2023-12-08T05:00:45.790Z,71.24
2023-12-08T05:03:13.318Z,73.16
2023-12-08T05:05:41.098Z,72.00
2023-12-08T05:08:08.599Z,72.71
2023-12-08T05:10:39.192Z,73.78
2023-12-08T05:13:06.687Z,72.32
2023-12-08T05:15:34.492Z,71.77
2023-12-08T05:18:03.866Z,72.26
2023-12-08T05:20:31.328Z,72.04
2023-12-08T05:22:58.825Z,70.68
2023-12-08T05:25:27.192Z,71.67
2023-12-08T05:27:57.777Z,69.48
2023-12-08T05:30:25.144Z,73.01
2023-12-08T05:32:52.724Z,74.05
2023-12-08T05:35:20.183Z,73.90
2023-12-08T05:37:47.539Z,69.74
2023-12-08T05:40:15.356Z,74.36
2023-12-08T05:42:46.077Z,71.57
2023-12-08T05:45:13.732Z,70.63
2023-12-08T05:47:41.307Z,69.97
2023-12-08T05:50:09.244Z,71.93
2023-12-08T05:52:37.219Z,71.89
2023-12-08T05:55:05.273Z,71.67
2023-12-08T05:57:32.691Z,69.11
2023-12-08T06:00:00.574Z,67.60
2023-12-08T06:02:28.054Z,68.16
2023-12-08T06:04:55.474Z,69.57
2023-12-08T06:07:23.145Z,71.10
2023-12-08T06:09:51.306Z,69.58
2023-12-08T06:12:18.801Z,70.21
2023-12-08T06:14:46.392Z,72.70
2023-12-08T06:17:13.832Z,68.80
2023-12-08T06:19:44.689Z,68.99
2023-12-08T06:22:12.139Z,70.23
2023-12-08T06:24:39.661Z,69.98
2023-12-08T06:27:07.164Z,68.75
2023-12-08T06:29:34.842Z,66.54
2023-12-08T06:32:02.189Z,66.34
2023-12-08T06:34:30.356Z,67.94
2023-12-08T06:36:57.905Z,69.96
2023-12-08T06:39:25.374Z,71.31
2023-12-08T06:41:53.063Z,68.43
2023-12-08T06:44:20.548Z,69.80
2023-12-08T06:46:47.854Z,69.86
2023-12-08T06:49:15.407Z,69.35
2023-12-08T06:51:42.902Z,68.68
2023-12-08T06:54:10.358Z,68.99
2023-12-08T06:56:41.234Z,69.20
2023-12-08T06:59:10.037Z,72.20
2023-12-08T07:01:38.003Z,71.46
2023-12-08T07:04:05.917Z,71.94
2023-12-08T07:06:34.516Z,69.07
2023-12-08T07:09:02.500Z,73.45
2023-12-08T07:11:30.148Z,70.17
2023-12-08T07:13:57.562Z,70.02
2023-12-08T07:16:25.510Z,70.33
2023-12-08T07:18:54.454Z,71.51
2023-12-08T07:21:23.114Z,71.36
2023-12-08T07:23:50.480Z,69.52
2023-12-08T07:26:18.290Z,68.96
2023-12-08T07:28:45.763Z,71.62
2023-12-08T07:31:15.298Z,72.75
2023-12-08T07:33:42.797Z,73.14
2023-12-08T07:36:11.005Z,71.10
2023-12-08T07:38:38.387Z,71.20
2023-12-08T07:41:09.184Z,71.91
2023-12-08T07:43:36.770Z,69.35
2023-12-08T07:46:05.121Z,69.13
2023-12-08T07:48:32.871Z,68.80
2023-12-08T07:51:00.544Z,73.98
2023-12-08T07:53:28.402Z,73.40
2023-12-08T07:55:55.830Z,72.63
2023-12-08T07:58:23.225Z,70.32
2023-12-08T08:00:51.742Z,70.67
2023-12-08T08:03:19.379Z,70.18
2023-12-08T08:05:47.139Z,71.73
2023-12-08T08:08:14.585Z,71.14
2023-12-08T08:10:42.359Z,72.37
2023-12-08T08:13:09.753Z,70.78
2023-12-08T08:15:37.107Z,72.27
2023-12-08T08:18:04.873Z,69.01
2023-12-08T08:20:32.487Z,69.96
2023-12-08T08:22:59.849Z,72.38
2023-12-08T08:25:27.416Z,69.87
2023-12-08T08:27:54.939Z,68.78
2023-12-08T08:30:22.423Z,69.91
2023-12-08T08:32:49.921Z,68.48
2023-12-08T08:35:17.379Z,70.18
2023-12-08T08:37:46.134Z,73.22
2023-12-08T08:40:13.559Z,72.98
2023-12-08T08:42:41.422Z,71.78
2023-12-08T08:45:09.615Z,73.49
2023-12-08T08:47:37.357Z,72.63
2023-12-08T08:50:06.520Z,71.10
2023-12-08T08:52:37.030Z,72.65
2023-12-08T08:55:07.342Z,72.79
2023-12-08T08:57:34.995Z,70.55
2023-12-08T09:00:02.467Z,70.94
2023-12-08T09:02:30.040Z,71.13
2023-12-08T09:04:57.713Z,69.29
2023-12-08T09:07:25.373Z,69.99
2023-12-08T09:09:52.911Z,71.50
2023-12-08T09:12:20.708Z,71.57
2023-12-08T09:14:48.217Z,71.64
2023-12-08T09:17:15.682Z,70.06
2023-12-08T09:19:43.023Z,71.13
2023-12-08T09:22:11.780Z,70.96
2023-12-08T09:24:39.182Z,67.99
2023-12-08T09:27:06.710Z,67.00
2023-12-08T09:29:34.436Z,70.76
2023-12-08T09:32:01.903Z,67.34
2023-12-08T09:34:29.548Z,69.42
2023-12-08T09:37:25.617Z,67.76
2023-12-08T09:39:45.320Z,68.45
2023-12-08T09:42:43.232Z,67.67
2023-12-08T09:45:11.895Z,65.84
2023-12-08T09:47:43.321Z,65.93
2023-12-08T09:50:14.359Z,66.37
2023-12-08T09:52:43.315Z,65.10
2023-12-08T09:55:14.037Z,66.69
2023-12-08T09:57:48.444Z,69.07
2023-12-08T10:00:17.613Z,68.57
2023-12-08T10:02:45.093Z,67.95
2023-12-08T10:05:13.134Z,68.62
2023-12-08T10:07:49.566Z,66.74
2023-12-08T10:10:17.094Z,66.60
2023-12-08T10:12:46.480Z,70.39
2023-12-08T10:15:14.327Z,69.61
2023-12-08T10:17:54.122Z,65.73
2023-12-08T10:20:24.605Z,68.83
2023-12-08T10:22:55.550Z,67.93
2023-12-08T10:25:30.968Z,65.67
2023-12-08T10:27:58.618Z,68.13
2023-12-08T10:30:28.641Z,65.54
2023-12-08T10:32:56.789Z,68.01
2023-12-08T10:35:24.744Z,69.10
2023-12-08T10:37:52.251Z,70.11
2023-12-08T10:40:20.615Z,69.17
2023-12-08T10:42:51.945Z,67.14
2023-12-08T10:45:20.274Z,65.11
2023-12-08T10:47:52.089Z,70.19
2023-12-08T10:50:21.842Z,68.07
2023-12-08T10:52:50.979Z,66.31
2023-12-08T10:55:18.843Z,66.91
2023-12-08T10:57:49.702Z,67.64
2023-12-08T11:00:20.671Z,66.42
2023-12-08T11:02:51.725Z,65.51
2023-12-08T11:05:40.454Z,65.71
2023-12-08T11:08:14.751Z,67.45
2023-12-08T11:10:48.318Z,67.55
2023-12-08T11:13:28.882Z,65.80
2023-12-08T11:16:25.412Z,65.63
2023-12-08T11:18:56.288Z,64.43
2023-12-08T11:21:25.418Z,67.04
2023-12-08T11:23:53.970Z,67.54
2023-12-08T11:26:53.468Z,67.77
2023-12-08T11:29:53.619Z,66.28
2023-12-08T11:32:53.181Z,66.71
2023-12-08T11:35:20.697Z,66.58
2023-12-08T11:37:48.263Z,67.22
2023-12-08T11:40:15.733Z,66.88
2023-12-08T11:42:48.882Z,68.06
2023-12-08T11:45:18.794Z,67.81
2023-12-08T11:47:46.426Z,68.13
2023-12-08T11:50:14.317Z,68.25
2023-12-08T11:52:43.776Z,64.16
2023-12-08T11:55:28.999Z,65.14
2023-12-08T11:58:01.056Z,65.31
2023-12-08T12:00:32.206Z,65.65
2023-12-08T12:03:01.217Z,64.36
2023-12-08T12:05:29.494Z,65.63
2023-12-08T12:07:59.193Z,66.19
2023-12-08T12:10:30.658Z,66.73
2023-12-08T12:13:15.194Z,68.38
2023-12-08T12:15:43.978Z,62.72
2023-12-08T12:18:15.534Z,65.30
2023-12-08T12:20:44.594Z,65.76
2023-12-08T12:23:16.171Z,64.62
2023-12-08T12:25:47.282Z,64.73
2023-12-08T12:28:17.190Z,62.64
2023-12-08T12:30:51.489Z,63.29
2023-12-08T12:33:19.130Z,64.27
2023-12-08T12:35:51.980Z,62.90
2023-12-08T12:38:25.830Z,63.16
2023-12-08T12:40:57.115Z,64.19
2023-12-08T12:43:24.741Z,62.67
2023-12-08T12:45:52.646Z,64.48
2023-12-08T12:48:26.577Z,63.09
2023-12-08T12:50:54.364Z,61.82
2023-12-08T12:53:21.885Z,63.17
2023-12-08T12:55:51.267Z,63.60
2023-12-08T12:58:25.469Z,62.44
2023-12-08T13:00:53.603Z,63.59
2023-12-08T13:03:24.130Z,65.12
2023-12-08T13:05:58.437Z,65.28
2023-12-08T13:08:27.201Z,64.55
2023-12-08T13:10:55.260Z,65.81
2023-12-08T13:13:22.938Z,66.45
2023-12-08T13:15:51.951Z,64.28
2023-12-08T13:18:19.728Z,65.81
2023-12-08T13:20:47.354Z,65.92
2023-12-08T13:23:14.927Z,65.99
2023-12-08T13:25:42.648Z,68.16
2023-12-08T13:28:10.083Z,62.66
2023-12-08T13:30:37.539Z,66.54
2023-12-08T13:33:07.316Z,66.44
2023-12-08T13:35:36.987Z,64.73
2023-12-08T13:38:04.494Z,63.32
2023-12-08T13:40:31.854Z,68.30
2023-12-08T13:42:59.239Z,67.06
2023-12-08T13:45:27.281Z,67.53
2023-12-08T13:47:55.008Z,65.94
2023-12-08T13:50:22.636Z,64.71
2023-12-08T13:52:50.091Z,66.01
2023-12-08T13:55:17.546Z,62.56
2023-12-08T13:57:45.226Z,65.03
2023-12-08T14:00:13.945Z,64.80
2023-12-08T14:02:42.461Z,64.36
2023-12-08T14:05:13.276Z,64.19
2023-12-08T14:07:41.464Z,64.79
2023-12-08T14:10:09.990Z,63.45
2023-12-08T14:12:37.386Z,64.79
2023-12-08T14:15:05.930Z,67.01
2023-12-08T14:17:33.960Z,67.17
2023-12-08T14:20:01.559Z,65.20
2023-12-08T14:22:29.315Z,64.52
2023-12-08T14:24:56.888Z,65.93
2023-12-08T14:27:24.544Z,65.68
2023-12-08T14:29:52.328Z,66.08
2023-12-08T14:32:20.190Z,65.41
2023-12-08T14:34:47.854Z,66.12
2023-12-08T14:37:15.643Z,65.27
2023-12-08T14:39:43.181Z,65.51
2023-12-08T14:42:10.633Z,66.67
2023-12-08T14:44:38.386Z,68.52
2023-12-08T14:47:05.975Z,66.10
2023-12-08T14:49:34.028Z,66.96
2023-12-08T14:52:01.466Z,66.18
2023-12-08T14:54:32.514Z,64.23
2023-12-08T14:57:06.096Z,65.79
2023-12-08T14:59:33.681Z,65.79
2023-12-08T15:02:01.313Z,67.21
2023-12-08T15:04:28.895Z,64.34
2023-12-08T15:06:56.480Z,66.03
2023-12-08T15:09:23.792Z,66.17
2023-12-08T15:11:51.127Z,65.11
2023-12-08T15:14:18.621Z,63.28
2023-12-08T15:16:46.018Z,65.39
2023-12-08T15:19:14.554Z,63.20
2023-12-08T15:21:42.125Z,65.04
2023-12-08T15:24:10.567Z,66.27
2023-12-08T15:26:42.905Z,65.26
2023-12-08T15:29:10.519Z,65.52
2023-12-08T15:31:40.934Z,65.99
2023-12-08T15:34:08.629Z,65.32
2023-12-08T15:36:36.065Z,64.63
2023-12-08T15:39:05.135Z,66.46
2023-12-08T15:41:33.520Z,67.56
2023-12-08T15:44:01.020Z,65.05
2023-12-08T15:46:28.351Z,64.78
2023-12-08T15:48:55.779Z,64.95
2023-12-08T15:51:23.546Z,66.76
2023-12-08T15:53:51.295Z,66.68
2023-12-08T15:56:18.795Z,65.76
2023-12-08T15:58:46.252Z,66.01
2023-12-08T16:01:23.772Z,64.18
2023-12-08T16:03:51.316Z,64.35
2023-12-08T16:06:20.135Z,63.68
2023-12-08T16:08:47.935Z,65.85
2023-12-08T16:11:28.774Z,64.94
2023-12-08T16:13:56.484Z,62.54
2023-12-08T16:16:24.183Z,63.06
2023-12-08T16:18:54.798Z,68.25
2023-12-08T16:21:30.892Z,65.30
2023-12-08T16:24:00.865Z,63.01
2023-12-08T16:26:28.660Z,65.76
2023-12-08T16:28:56.476Z,64.50
2023-12-08T16:31:24.841Z,62.89
2023-12-08T16:33:52.371Z,63.17
2023-12-08T16:36:20.153Z,63.85
2023-12-08T16:38:47.819Z,62.73
2023-12-08T16:41:15.428Z,64.27
2023-12-08T16:43:42.926Z,63.16
2023-12-08T16:46:10.374Z,62.16
2023-12-08T16:48:37.969Z,65.02
2023-12-08T16:51:06.150Z,62.23
2023-12-08T16:53:34.886Z,64.22
2023-12-08T16:56:02.515Z,63.50
2023-12-08T16:58:29.950Z,62.77
2023-12-08T17:00:57.422Z,62.54
2023-12-08T17:03:24.953Z,61.87
2023-12-08T17:05:52.668Z,63.69
2023-12-08T17:08:20.079Z,62.19
2023-12-08T17:10:47.605Z,62.39
2023-12-08T17:13:15.049Z,61.82
2023-12-08T17:15:42.634Z,63.31
2023-12-08T17:18:10.149Z,63.07
2023-12-08T17:20:37.621Z,62.51
2023-12-08T17:23:05.454Z,62.73
2023-12-08T17:25:32.823Z,62.55
2023-12-08T17:28:01.096Z,62.46
2023-12-08T17:30:29.113Z,65.00
2023-12-08T17:32:57.333Z,63.31
2023-12-08T17:35:25.107Z,63.72
2023-12-08T17:37:52.913Z,63.59
2023-12-08T17:40:21.717Z,62.94
2023-12-08T17:42:49.356Z,63.43
2023-12-08T17:45:17.756Z,63.30
2023-12-08T17:47:45.878Z,62.56
2023-12-08T17:50:13.523Z,62.51
2023-12-08T17:52:41.036Z,62.76
2023-12-08T17:55:09.673Z,62.91
2023-12-08T17:57:39.657Z,65.20
2023-12-08T18:00:09.577Z,64.30
2023-12-08T18:02:38.164Z,65.98
2023-12-08T18:05:06.885Z,65.04
2023-12-08T18:07:34.583Z,64.85
2023-12-08T18:10:02.120Z,67.47
2023-12-08T18:12:30.042Z,66.67
2023-12-08T18:14:57.690Z,65.69
2023-12-08T18:17:25.258Z,64.93
2023-12-08T18:19:52.772Z,64.38
2023-12-08T18:22:20.266Z,64.59
2023-12-08T18:24:47.609Z,64.89
2023-12-08T18:27:23.544Z,66.15
2023-12-08T18:30:01.756Z,64.10
2023-12-08T18:32:29.563Z,63.06
2023-12-08T18:34:57.048Z,67.94
2023-12-08T18:37:24.377Z,65.15
2023-12-08T18:39:51.841Z,64.66
2023-12-08T18:42:20.045Z,65.01
2023-12-08T18:44:47.781Z,64.79
2023-12-08T18:47:15.594Z,63.82
2023-12-08T18:49:46.245Z,64.09
2023-12-08T18:52:17.253Z,62.97
2023-12-08T18:54:44.657Z,64.07
2023-12-08T18:57:12.201Z,64.68
2023-12-08T18:59:41.607Z,64.50
2023-12-08T19:02:09.047Z,64.26
2023-12-08T19:04:38.712Z,69.33
2023-12-08T19:07:07.232Z,66.99
2023-12-08T19:09:34.646Z,64.46
2023-12-08T19:12:04.200Z,66.44
2023-12-08T19:14:34.397Z,64.53
2023-12-08T19:17:02.657Z,63.35
2023-12-08T19:19:30.078Z,63.00
2023-12-08T19:21:58.170Z,64.20
2023-12-08T19:24:25.655Z,64.87
2023-12-08T19:26:53.594Z,65.83
2023-12-08T19:29:21.057Z,66.19
2023-12-08T19:31:51.208Z,66.99
2023-12-08T19:34:18.893Z,64.75
2023-12-08T19:36:46.216Z,64.17
2023-12-08T19:39:16.344Z,64.98
2023-12-08T19:41:44.321Z,63.33
2023-12-08T19:44:11.952Z,65.23
2023-12-08T19:46:39.973Z,64.70
2023-12-08T19:49:07.691Z,66.79
2023-12-08T19:51:35.363Z,66.04
2023-12-08T19:54:02.902Z,67.74
2023-12-08T19:56:30.333Z,65.76
2023-12-08T19:58:57.783Z,66.46
2023-12-08T20:01:25.246Z,69.07
2023-12-08T20:03:52.690Z,66.66
2023-12-08T20:06:20.091Z,67.08
2023-12-08T20:08:47.995Z,65.54
2023-12-08T20:11:15.918Z,64.95
2023-12-08T20:13:46.401Z,64.06
2023-12-08T20:16:14.982Z,64.01
2023-12-08T20:18:42.506Z,63.42
2023-12-08T20:21:10.188Z,64.67
2023-12-08T20:23:37.720Z,63.71
2023-12-08T20:26:07.123Z,62.43
2023-12-08T20:28:34.529Z,62.19
2023-12-08T20:31:01.925Z,65.71
2023-12-08T20:33:29.396Z,67.47
2023-12-08T20:35:58.335Z,65.70
2023-12-08T20:38:25.872Z,66.48
2023-12-08T20:40:56.134Z,67.18
2023-12-08T20:43:24.087Z,66.89
2023-12-08T20:45:51.719Z,66.40
2023-12-08T20:48:20.229Z,64.87
2023-12-08T20:50:48.104Z,65.40
2023-12-08T20:53:15.780Z,64.44
2023-12-08T20:55:46.843Z,63.27
2023-12-08T20:58:15.293Z,62.71
2023-12-08T21:00:46.982Z,63.20
2023-12-08T21:03:20.699Z,61.52
2023-12-08T21:05:52.356Z,63.97
2023-12-08T21:08:24.210Z,65.80
2023-12-08T21:10:52.016Z,64.30
2023-12-08T21:13:23.480Z,65.47
2023-12-08T21:15:56.137Z,63.76
2023-12-08T21:18:24.640Z,64.52
2023-12-08T21:20:52.313Z,65.23
2023-12-08T21:23:20.269Z,64.58
2023-12-08T21:25:48.246Z,66.23
2023-12-08T21:28:17.062Z,65.40
2023-12-08T21:30:45.433Z,64.51
2023-12-08T21:33:13.455Z,63.12
2023-12-08T21:35:40.846Z,63.65
2023-12-08T21:38:08.182Z,64.16
2023-12-08T21:40:35.501Z,65.19
2023-12-08T21:43:03.231Z,64.95
2023-12-08T21:45:30.575Z,63.89
2023-12-08T21:47:58.087Z,63.30
2023-12-08T21:50:25.653Z,62.52
2023-12-08T21:52:54.087Z,63.37
2023-12-08T21:55:21.758Z,62.94
2023-12-08T21:57:49.149Z,64.07
2023-12-08T22:00:20.458Z,63.01
2023-12-08T22:02:48.321Z,64.92
2023-12-08T22:05:16.054Z,65.66
2023-12-08T22:07:43.873Z,64.96
2023-12-08T22:10:12.221Z,64.75
2023-12-08T22:12:40.429Z,63.89
2023-12-08T22:15:09.352Z,63.80
2023-12-08T22:17:40.894Z,62.70
2023-12-08T22:20:11.148Z,63.59
2023-12-08T22:22:39.959Z,63.97
2023-12-08T22:25:30.951Z,64.09
2023-12-08T22:30:48.222Z,63.11
2023-12-08T22:33:21.910Z,63.10
2023-12-08T22:35:49.560Z,62.91
2023-12-08T22:38:20.058Z,64.18
2023-12-08T22:40:47.865Z,62.72
2023-12-08T22:43:34.798Z,62.81
2023-12-08T22:46:23.079Z,63.24
2023-12-08T22:49:04.521Z,63.08
2023-12-08T22:51:43.262Z,62.48
2023-12-08T22:54:19.903Z,63.52
2023-12-08T22:56:47.656Z,63.70
2023-12-08T22:59:21.793Z,63.88
2023-12-08T23:01:49.539Z,63.31
2023-12-08T23:04:17.859Z,62.12
2023-12-08T23:06:49.023Z,62.03
2023-12-08T23:09:27.810Z,62.56
2023-12-08T23:11:55.961Z,62.51
2023-12-08T23:14:23.620Z,62.92
2023-12-08T23:16:56.968Z,62.19
2023-12-08T23:19:25.666Z,61.65
2023-12-08T23:21:53.166Z,62.17
2023-12-08T23:24:28.611Z,61.89
2023-12-08T23:26:56.238Z,63.30
2023-12-08T23:29:23.799Z,61.66
2023-12-08T23:31:51.372Z,61.88
2023-12-08T23:34:21.846Z,61.58
2023-12-08T23:36:52.106Z,61.51
2023-12-08T23:39:19.930Z,63.61
2023-12-08T23:41:47.357Z,62.91
2023-12-08T23:44:17.750Z,63.19
2023-12-08T23:46:45.728Z,62.34
2023-12-08T23:49:14.286Z,62.48
2023-12-08T23:51:42.685Z,62.02
2023-12-08T23:54:10.045Z,62.96
2023-12-08T23:56:37.869Z,61.74
2023-12-08T23:59:05.453Z,63.30
